GMTN/TTU METAR and TAF weather

Enter ICAO airport designator
Station Type Date Time Source
GMTN METAR 2022/06/28 15:00 UTC NOAA

GMTN 281500Z 08012KT CAVOK 25/15 Q1016 NOSIG


Station Type Date Time Source
GMTN Decoded METAR 2022/06/28 15:00 UTC NOAA

Tetuan / Sania Ramel, Morocco (GMTN) 35-35N 005-20W 10M
Jun 28, 2022 - 11:00 AM EDT / 2022.06.28 1500 UTC
Wind: from the E (080 degrees) at 14 MPH (12 KT):0
Visibility: greater than 7 mile(s):0
Temperature: 77 F (25 C)
Dew Point: 59 F (15 C)
Relative Humidity: 53%
Pressure (altimeter): 30.00 in. Hg (1016 hPa)
ob: GMTN 281500Z 08012KT CAVOK 25/15 Q1016 NOSIG
cycle: 15

Station Type Date Time Source
GMTN TAF 2021/07/02 12:21 UTC NOAA

TAF GMTN 021100Z 0212/0318 09008KT CAVOK
BECMG 0219/0223 26012KT

Example: see airport list